sensor_id;sensor_type;location;lat;lon;timestamp;pressure;altitude;pressure_sealevel;temperature;humidity
13954;BME280;7049;49.444;8.522;2023-04-23T00:04:07;77041.84;;;-3.47;95.07
13954;BME280;7049;49.444;8.522;2023-04-23T00:09:12;77048.13;;;-3.47;96.07
13954;BME280;7049;49.444;8.522;2023-04-23T00:14:15;77052.31;;;-3.47;96.20
13954;BME280;7049;49.444;8.522;2023-04-23T00:19:16;77052.31;;;-3.47;96.56
13954;BME280;7049;49.444;8.522;2023-04-23T00:24:20;77058.59;;;-3.47;96.91
13954;BME280;7049;49.444;8.522;2023-04-23T00:29:21;77066.97;;;-3.47;97.27
13954;BME280;7049;49.444;8.522;2023-04-23T00:34:23;77064.88;;;-3.47;97.40
13954;BME280;7049;49.444;8.522;2023-04-23T00:39:25;77073.22;;;-3.47;97.87
13954;BME280;7049;49.444;8.522;2023-04-23T00:44:27;77077.41;;;-3.47;98.26
13954;BME280;7049;49.444;8.522;2023-04-23T00:49:28;77087.88;;;-3.47;98.08
13954;BME280;7049;49.444;8.522;2023-04-23T00:54:32;77081.59;;;-3.47;98.54
13954;BME280;7049;49.444;8.522;2023-04-23T00:59:34;77077.41;;;-3.47;98.68
13954;BME280;7049;49.444;8.522;2023-04-23T01:04:36;77081.59;;;-3.47;98.47
13954;BME280;7049;49.444;8.522;2023-04-23T01:09:39;77089.97;;;-3.47;98.79
13954;BME280;7049;49.444;8.522;2023-04-23T01:14:41;77089.97;;;-3.47;98.85
13954;BME280;7049;49.444;8.522;2023-04-23T01:19:43;77089.97;;;-3.47;98.74
13954;BME280;7049;49.444;8.522;2023-04-23T01:24:46;77104.63;;;-3.47;99.16
13954;BME280;7049;49.444;8.522;2023-04-23T01:29:48;77112.97;;;-3.47;99.16
13954;BME280;7049;49.444;8.522;2023-04-23T01:34:50;77121.34;;;-3.47;99.60
13954;BME280;7049;49.444;8.522;2023-04-23T01:39:55;77123.44;;;-3.47;99.82
13954;BME280;7049;49.444;8.522;2023-04-23T01:44:56;77123.44;;;-3.47;100.00
13954;BME280;7049;49.444;8.522;2023-04-23T01:49:58;77131.81;;;-3.47;99.98
13954;BME280;7049;49.444;8.522;2023-04-23T01:55:01;77129.72;;;-3.47;99.76
13954;BME280;7049;49.444;8.522;2023-04-23T02:00:04;77138.09;;;-3.47;100.00
13954;BME280;7049;49.444;8.522;2023-04-23T02:05:10;77150.63;;;-3.47;100.00
13954;BME280;7049;49.444;8.522;2023-04-23T02:10:13;77161.09;;;-3.47;100.00
13954;BME280;7049;49.444;8.522;2023-04-23T02:15:14;77156.91;;;-3.47;100.00
13954;BME280;7049;49.444;8.522;2023-04-23T02:20:17;77163.19;;;-3.47;100.00
13954;BME280;7049;49.444;8.522;2023-04-23T02:25:20;77173.66;;;-3.47;100.00
13954;BME280;7049;49.444;8.522;2023-04-23T02:30:22;77171.56;;;-3.47;100.00
13954;BME280;7049;49.444;8.522;2023-04-23T02:35:24;77177.84;;;-3.47;100.00
13954;BME280;7049;49.444;8.522;2023-04-23T02:40:27;77175.75;;;-3.47;100.00
13954;BME280;7049;49.444;8.522;2023-04-23T02:45:29;77173.66;;;-3.47;100.00
13954;BME280;7049;49.444;8.522;2023-04-23T02:50:30;77177.84;;;-3.47;100.00
13954;BME280;7049;49.444;8.522;2023-04-23T02:55:33;77184.09;;;-3.47;100.00
13954;BME280;7049;49.444;8.522;2023-04-23T03:00:34;77194.56;;;-3.47;100.00
13954;BME280;7049;49.444;8.522;2023-04-23T03:05:36;77190.38;;;-3.47;100.00
13954;BME280;7049;49.444;8.522;2023-04-23T03:10:39;77188.28;;;-3.47;100.00
13954;BME280;7049;49.444;8.522;2023-04-23T03:15:40;77207.13;;;-3.47;100.00
13954;BME280;7049;49.444;8.522;2023-04-23T03:20:42;77211.31;;;-3.47;100.00
13954;BME280;7049;49.444;8.522;2023-04-23T03:25:44;77207.13;;;-3.47;100.00
13954;BME280;7049;49.444;8.522;2023-04-23T03:30:46;77215.50;;;-3.47;100.00
13954;BME280;7049;49.444;8.522;2023-04-23T03:35:47;77232.22;;;-3.47;100.00
13954;BME280;7049;49.444;8.522;2023-04-23T03:40:50;77236.41;;;-3.47;100.00
13954;BME280;7049;49.444;8.522;2023-04-23T03:45:51;77236.41;;;-3.47;100.00
13954;BME280;7049;49.444;8.522;2023-04-23T03:50:53;77246.88;;;-3.47;100.00
13954;BME280;7049;49.444;8.522;2023-04-23T03:55:56;77253.16;;;-3.47;100.00
13954;BME280;7049;49.444;8.522;2023-04-23T04:00:57;77261.53;;;-3.47;100.00
13954;BME280;7049;49.444;8.522;2023-04-23T04:05:59;77265.69;;;-3.47;100.00
13954;BME280;7049;49.444;8.522;2023-04-23T04:11:01;77271.97;;;-3.47;100.00
13954;BME280;7049;49.444;8.522;2023-04-23T04:16:03;77276.16;;;-3.47;99.87
13954;BME280;7049;49.444;8.522;2023-04-23T04:21:05;77288.72;;;-3.47;100.00
13954;BME280;7049;49.444;8.522;2023-04-23T04:26:09;77290.81;;;-3.47;100.00
13954;BME280;7049;49.444;8.522;2023-04-23T04:31:10;77292.91;;;-3.47;100.00
13954;BME280;7049;49.444;8.522;2023-04-23T04:36:11;77282.44;;;-3.47;100.00
13954;BME280;7049;49.444;8.522;2023-04-23T04:41:15;77286.63;;;-3.47;100.00
13954;BME280;7049;49.444;8.522;2023-04-23T04:46:16;77286.63;;;-3.47;100.00
13954;BME280;7049;49.444;8.522;2023-04-23T04:51:20;77292.91;;;-3.47;100.00
13954;BME280;7049;49.444;8.522;2023-04-23T04:56:23;77295.00;;;-3.47;100.00
13954;BME280;7049;49.444;8.522;2023-04-23T05:01:25;77292.91;;;-3.47;100.00
13954;BME280;7049;49.444;8.522;2023-04-23T05:06:28;77299.19;;;-3.47;100.00
13954;BME280;7049;49.444;8.522;2023-04-23T05:11:31;77295.00;;;-3.47;100.00
13954;BME280;7049;49.444;8.522;2023-04-23T05:16:35;77297.09;;;-3.47;100.00
13954;BME280;7049;49.444;8.522;2023-04-23T05:21:36;77297.09;;;-3.47;100.00
13954;BME280;7049;49.444;8.522;2023-04-23T05:26:39;77292.91;;;-3.47;100.00
13954;BME280;7049;49.444;8.522;2023-04-23T05:31:40;77282.44;;;-3.47;100.00
13954;BME280;7049;49.444;8.522;2023-04-23T05:36:42;77290.81;;;-3.47;100.00
13954;BME280;7049;49.444;8.522;2023-04-23T05:41:44;77286.63;;;-3.47;100.00
13954;BME280;7049;49.444;8.522;2023-04-23T05:46:46;77278.25;;;-3.47;100.00
13954;BME280;7049;49.444;8.522;2023-04-23T05:51:47;77271.97;;;-3.47;100.00
13954;BME280;7049;49.444;8.522;2023-04-23T05:56:50;77269.88;;;-3.47;100.00
13954;BME280;7049;49.444;8.522;2023-04-23T06:01:52;77269.88;;;-3.47;100.00
13954;BME280;7049;49.444;8.522;2023-04-23T06:06:53;77257.34;;;-3.47;100.00
13954;BME280;7049;49.444;8.522;2023-04-23T06:11:56;77255.25;;;-3.47;100.00
13954;BME280;7049;49.444;8.522;2023-04-23T06:16:57;77257.34;;;-3.47;100.00
13954;BME280;7049;49.444;8.522;2023-04-23T06:21:59;77255.25;;;-3.47;100.00
13954;BME280;7049;49.444;8.522;2023-04-23T06:27:02;77246.88;;;-3.47;100.00
13954;BME280;7049;49.444;8.522;2023-04-23T06:32:03;77242.69;;;-3.47;100.00
13954;BME280;7049;49.444;8.522;2023-04-23T06:37:05;77232.22;;;-3.47;100.00
13954;BME280;7049;49.444;8.522;2023-04-23T06:42:08;77196.66;;;-3.47;100.00
13954;BME280;7049;49.444;8.522;2023-04-23T06:47:09;77167.38;;;-3.47;100.00
13954;BME280;7049;49.444;8.522;2023-04-23T06:52:11;77142.28;;;-3.47;95.92
13954;BME280;7049;49.444;8.522;2023-04-23T06:57:13;77117.16;;;-3.47;96.93
13954;BME280;7049;49.444;8.522;2023-04-23T07:02:15;77102.53;;;-3.47;95.61
13954;BME280;7049;49.444;8.522;2023-04-23T07:07:16;77071.13;;;-3.47;95.90
13954;BME280;7049;49.444;8.522;2023-04-23T07:12:19;77050.22;;;-3.47;94.46
13954;BME280;7049;49.444;8.522;2023-04-23T07:17:21;77035.56;;;-3.47;92.36
13954;BME280;7049;49.444;8.522;2023-04-23T07:22:22;77046.03;;;-3.47;91.40
13954;BME280;7049;49.444;8.522;2023-04-23T07:27:26;77025.13;;;-3.47;91.54
13954;BME280;7049;49.444;8.522;2023-04-23T07:32:27;77010.47;;;-3.47;91.76
13954;BME280;7049;49.444;8.522;2023-04-23T07:37:29;76958.16;;;-3.47;87.35
13954;BME280;7049;49.444;8.522;2023-04-23T07:42:32;76966.53;;;-3.47;89.01
13954;BME280;7049;49.444;8.522;2023-04-23T07:47:33;76935.16;;;-3.47;88.91
13954;BME280;7049;49.444;8.522;2023-04-23T07:52:35;76918.44;;;-3.47;88.22
13954;BME280;7049;49.444;8.522;2023-04-23T07:57:38;76926.78;;;-3.47;87.01
13954;BME280;7049;49.444;8.522;2023-04-23T08:02:40;76928.88;;;-3.47;88.29
13954;BME280;7049;49.444;8.522;2023-04-23T08:07:41;76933.06;;;-3.47;86.52
13954;BME280;7049;49.444;8.522;2023-04-23T08:12:44;76930.97;;;-3.47;82.70
13954;BME280;7049;49.444;8.522;2023-04-23T08:17:45;76897.50;;;-3.47;81.58
13954;BME280;7049;49.444;8.522;2023-04-23T08:22:47;76864.03;;;-3.47;81.31
13954;BME280;7049;49.444;8.522;2023-04-23T08:27:50;76818.00;;;-3.47;80.61
13954;BME280;7049;49.444;8.522;2023-04-23T08:32:52;76801.28;;;-3.47;78.17
13954;BME280;7049;49.444;8.522;2023-04-23T08:37:53;76788.72;;;-3.47;73.58
13954;BME280;7049;49.444;8.522;2023-04-23T08:43:01;76767.81;;;-3.47;73.13
13954;BME280;7049;49.444;8.522;2023-04-23T08:48:03;76732.25;;;-3.47;71.92
13954;BME280;7049;49.444;8.522;2023-04-23T08:53:05;76721.78;;;-3.47;70.97
13954;BME280;7049;49.444;8.522;2023-04-23T08:58:08;76728.06;;;-3.47;67.98
13954;BME280;7049;49.444;8.522;2023-04-23T09:03:10;76705.06;;;-3.47;68.13
13954;BME280;7049;49.444;8.522;2023-04-23T09:08:11;76673.69;;;-3.47;68.59
13954;BME280;7049;49.444;8.522;2023-04-23T09:13:15;76633.94;;;-3.47;64.27
13954;BME280;7049;49.444;8.522;2023-04-23T09:18:18;76600.47;;;-3.47;62.57
13954;BME280;7049;49.444;8.522;2023-04-23T09:23:20;76560.72;;;-3.47;62.73
13954;BME280;7049;49.444;8.522;2023-04-23T09:28:34;76523.06;;;-3.47;58.74
13954;BME280;7049;49.444;8.522;2023-04-23T09:33:36;76504.25;;;-3.47;58.39
13954;BME280;7049;49.444;8.522;2023-04-23T09:38:38;76508.44;;;-3.47;56.02
13954;BME280;7049;49.444;8.522;2023-04-23T09:43:42;76525.16;;;-3.47;57.54
13954;BME280;7049;49.444;8.522;2023-04-23T09:48:43;76541.91;;;-3.47;58.75
13954;BME280;7049;49.444;8.522;2023-04-23T09:53:45;76537.72;;;-3.47;59.48
13954;BME280;7049;49.444;8.522;2023-04-23T09:58:48;76514.72;;;-3.47;57.25
13954;BME280;7049;49.444;8.522;2023-04-23T10:03:52;76514.72;;;-3.47;58.27
13954;BME280;7049;49.444;8.522;2023-04-23T10:08:54;76504.25;;;-3.47;55.20
13954;BME280;7049;49.444;8.522;2023-04-23T10:13:57;76487.53;;;-3.47;54.16
13954;BME280;7049;49.444;8.522;2023-04-23T10:19:00;76470.78;;;-3.47;52.43
13954;BME280;7049;49.444;8.522;2023-04-23T10:24:02;76466.59;;;-3.47;52.23
13954;BME280;7049;49.444;8.522;2023-04-23T10:29:12;76451.97;;;-3.47;51.26
13954;BME280;7049;49.444;8.522;2023-04-23T10:34:14;76454.06;;;-3.47;51.30
13954;BME280;7049;49.444;8.522;2023-04-23T10:39:16;76439.41;;;-3.47;47.57
13954;BME280;7049;49.444;8.522;2023-04-23T10:44:20;76418.50;;;-3.47;47.82
13954;BME280;7049;49.444;8.522;2023-04-23T10:49:22;76376.66;;;-3.47;47.81
13954;BME280;7049;49.444;8.522;2023-04-23T10:54:28;76324.38;;;-3.47;48.78
13954;BME280;7049;49.444;8.522;2023-04-23T10:59:32;76303.47;;;-3.47;43.82
13954;BME280;7049;49.444;8.522;2023-04-23T11:04:38;76274.19;;;-3.47;42.24
13954;BME280;7049;49.444;8.522;2023-04-23T11:09:42;76242.81;;;-3.47;43.46
13954;BME280;7049;49.444;8.522;2023-04-23T11:14:49;76190.50;;;-3.47;40.45
13954;BME280;7049;49.444;8.522;2023-04-23T11:20:05;76163.31;;;-3.47;41.57
13954;BME280;7049;49.444;8.522;2023-04-23T11:25:10;76163.31;;;-3.47;39.90
13954;BME280;7049;49.444;8.522;2023-04-23T11:30:15;76182.16;;;-3.47;40.77
13954;BME280;7049;49.444;8.522;2023-04-23T11:35:18;76177.97;;;-3.47;41.34
13954;BME280;7049;49.444;8.522;2023-04-23T11:40:21;76140.31;;;-3.47;38.88
13954;BME280;7049;49.444;8.522;2023-04-23T11:45:27;76119.41;;;-3.47;39.18
13954;BME280;7049;49.444;8.522;2023-04-23T11:50:30;76065.03;;;-3.47;37.40
13954;BME280;7049;49.444;8.522;2023-04-23T11:55:32;76035.75;;;-3.47;36.40
13954;BME280;7049;49.444;8.522;2023-04-23T12:00:35;76010.66;;;-3.47;35.51
13954;BME280;7049;49.444;8.522;2023-04-23T12:05:39;76010.66;;;-3.47;34.60
13954;BME280;7049;49.444;8.522;2023-04-23T12:10:45;75977.19;;;-3.47;35.97
13954;BME280;7049;49.444;8.522;2023-04-23T12:15:49;75945.81;;;-3.47;35.53
13954;BME280;7049;49.444;8.522;2023-04-23T12:20:51;75897.72;;;-3.47;34.33
13954;BME280;7049;49.444;8.522;2023-04-23T12:25:53;75895.63;;;-3.47;33.23
13954;BME280;7049;49.444;8.522;2023-04-23T12:31:00;75881.00;;;-3.47;33.17
13954;BME280;7049;49.444;8.522;2023-04-23T12:36:01;75862.16;;;-3.47;33.18
13954;BME280;7049;49.444;8.522;2023-04-23T12:41:03;75845.44;;;-3.47;33.38
13954;BME280;7049;49.444;8.522;2023-04-23T12:46:06;75843.34;;;-3.47;32.47
13954;BME280;7049;49.444;8.522;2023-04-23T12:51:08;75855.91;;;-3.47;32.92
13954;BME280;7049;49.444;8.522;2023-04-23T12:56:09;75851.72;;;-3.47;32.34
13954;BME280;7049;49.444;8.522;2023-04-23T13:01:12;75841.25;;;-3.47;32.73
13954;BME280;7049;49.444;8.522;2023-04-23T13:06:13;75870.53;;;-3.47;32.73
13954;BME280;7049;49.444;8.522;2023-04-23T13:11:15;75866.34;;;-3.47;33.50
13954;BME280;7049;49.444;8.522;2023-04-23T13:16:18;75868.44;;;-3.47;33.33
13954;BME280;7049;49.444;8.522;2023-04-23T13:21:19;75876.81;;;-3.47;32.99
13954;BME280;7049;49.444;8.522;2023-04-23T13:26:21;75868.44;;;-3.47;32.93
13954;BME280;7049;49.444;8.522;2023-04-23T13:31:24;75857.97;;;-3.47;33.28
13954;BME280;7049;49.444;8.522;2023-04-23T13:36:26;75872.63;;;-3.47;33.45
13954;BME280;7049;49.444;8.522;2023-04-23T13:41:28;75866.34;;;-3.47;33.26
13954;BME280;7049;49.444;8.522;2023-04-23T13:46:30;75847.53;;;-3.47;34.10
13954;BME280;7049;49.444;8.522;2023-04-23T13:51:32;75818.25;;;-3.47;33.22
13954;BME280;7049;49.444;8.522;2023-04-23T13:56:33;75822.44;;;-3.47;32.82
13954;BME280;7049;49.444;8.522;2023-04-23T14:01:38;75811.97;;;-3.47;33.10
13954;BME280;7049;49.444;8.522;2023-04-23T14:06:39;75809.88;;;-3.47;34.69
13954;BME280;7049;49.444;8.522;2023-04-23T14:11:41;75770.16;;;-3.47;35.53
13954;BME280;7049;49.444;8.522;2023-04-23T14:16:43;75738.78;;;-3.47;34.71
13954;BME280;7049;49.444;8.522;2023-04-23T14:21:45;75751.34;;;-3.47;34.41
13954;BME280;7049;49.444;8.522;2023-04-23T14:26:46;75751.34;;;-3.47;33.95
13954;BME280;7049;49.444;8.522;2023-04-23T14:31:49;75736.69;;;-3.47;33.52
13954;BME280;7049;49.444;8.522;2023-04-23T14:36:51;75751.34;;;-3.47;34.04
13954;BME280;7049;49.444;8.522;2023-04-23T14:41:52;75772.25;;;-3.47;33.79
13954;BME280;7049;49.444;8.522;2023-04-23T14:46:55;75782.69;;;-3.47;34.31
13954;BME280;7049;49.444;8.522;2023-04-23T14:52:00;75791.06;;;-3.47;34.81
13954;BME280;7049;49.444;8.522;2023-04-23T14:57:02;75797.34;;;-3.47;34.52
13954;BME280;7049;49.444;8.522;2023-04-23T15:02:05;75814.06;;;-3.47;35.28
13954;BME280;7049;49.444;8.522;2023-04-23T15:07:07;75803.63;;;-3.47;35.50
13954;BME280;7049;49.444;8.522;2023-04-23T15:12:42;75822.44;;;-3.47;35.82
13954;BME280;7049;49.444;8.522;2023-04-23T15:17:45;75828.72;;;-3.47;35.74
13954;BME280;7049;49.444;8.522;2023-04-23T15:22:47;75826.63;;;-3.47;36.17
13954;BME280;7049;49.444;8.522;2023-04-23T15:27:48;75814.06;;;-3.47;35.98
13954;BME280;7049;49.444;8.522;2023-04-23T15:32:58;75801.53;;;-3.47;35.41
13954;BME280;7049;49.444;8.522;2023-04-23T15:37:59;75818.25;;;-3.47;36.54
13954;BME280;7049;49.444;8.522;2023-04-23T15:43:01;75837.06;;;-3.47;36.00
13954;BME280;7049;49.444;8.522;2023-04-23T15:48:04;75853.81;;;-3.47;36.60
13954;BME280;7049;49.444;8.522;2023-04-23T15:53:05;75868.44;;;-3.47;36.87
13954;BME280;7049;49.444;8.522;2023-04-23T15:58:07;75889.34;;;-3.47;37.17
13954;BME280;7049;49.444;8.522;2023-04-23T16:03:09;75922.81;;;-3.47;39.57
13954;BME280;7049;49.444;8.522;2023-04-23T16:08:12;75960.47;;;-3.47;40.99
13954;BME280;7049;49.444;8.522;2023-04-23T16:13:15;76056.66;;;-3.47;49.34
13954;BME280;7049;49.444;8.522;2023-04-23T16:18:18;76186.34;;;-3.47;56.85
13954;BME280;7049;49.444;8.522;2023-04-23T16:23:19;76282.53;;;-3.47;63.86
13954;BME280;7049;49.444;8.522;2023-04-23T16:28:21;76322.28;;;-3.47;68.43
13954;BME280;7049;49.444;8.522;2023-04-23T16:33:23;76345.28;;;-3.47;71.14
13954;BME280;7049;49.444;8.522;2023-04-23T16:38:26;76332.75;;;-3.47;72.04
13954;BME280;7049;49.444;8.522;2023-04-23T16:43:27;76336.91;;;-3.47;72.97
13954;BME280;7049;49.444;8.522;2023-04-23T16:48:31;76353.66;;;-3.47;73.95
13954;BME280;7049;49.444;8.522;2023-04-23T16:53:33;76357.84;;;-3.47;73.06
13954;BME280;7049;49.444;8.522;2023-04-23T16:58:34;76389.22;;;-3.47;73.36
13954;BME280;7049;49.444;8.522;2023-04-23T17:03:37;76403.84;;;-3.47;75.54
13954;BME280;7049;49.444;8.522;2023-04-23T17:08:39;76397.56;;;-3.47;76.69
13954;BME280;7049;49.444;8.522;2023-04-23T17:13:41;76391.31;;;-3.47;78.26
13954;BME280;7049;49.444;8.522;2023-04-23T17:18:44;76414.31;;;-3.47;79.70
13954;BME280;7049;49.444;8.522;2023-04-23T17:23:46;76420.59;;;-3.47;81.14
13954;BME280;7049;49.444;8.522;2023-04-23T17:28:47;76435.22;;;-3.47;81.46
13954;BME280;7049;49.444;8.522;2023-04-23T17:33:50;76441.50;;;-3.47;82.56
13954;BME280;7049;49.444;8.522;2023-04-23T17:38:53;76445.69;;;-3.47;82.32
13954;BME280;7049;49.444;8.522;2023-04-23T17:43:54;76447.78;;;-3.47;83.67
13954;BME280;7049;49.444;8.522;2023-04-23T17:48:59;76460.31;;;-3.47;83.92
13954;BME280;7049;49.444;8.522;2023-04-23T17:54:01;76466.59;;;-3.47;83.30
13954;BME280;7049;49.444;8.522;2023-04-23T17:59:03;76481.25;;;-3.47;82.83
13954;BME280;7049;49.444;8.522;2023-04-23T18:04:06;76483.34;;;-3.47;83.04
13954;BME280;7049;49.444;8.522;2023-04-23T18:09:07;76489.59;;;-3.47;84.46
13954;BME280;7049;49.444;8.522;2023-04-23T18:14:09;76493.78;;;-3.47;86.27
13954;BME280;7049;49.444;8.522;2023-04-23T18:19:12;76502.16;;;-3.47;87.24
13954;BME280;7049;49.444;8.522;2023-04-23T18:24:14;76506.34;;;-3.47;88.30
13954;BME280;7049;49.444;8.522;2023-04-23T18:29:17;76520.97;;;-3.47;88.81
13954;BME280;7049;49.444;8.522;2023-04-23T18:34:21;76529.34;;;-3.47;88.92
13954;BME280;7049;49.444;8.522;2023-04-23T18:39:23;76546.09;;;-3.47;89.77
13954;BME280;7049;49.444;8.522;2023-04-23T18:44:24;76554.44;;;-3.47;89.95
13954;BME280;7049;49.444;8.522;2023-04-23T18:49:38;76562.81;;;-3.47;90.01
13954;BME280;7049;49.444;8.522;2023-04-23T18:54:43;76558.63;;;-3.47;90.40
13954;BME280;7049;49.444;8.522;2023-04-23T18:59:45;76571.19;;;-3.47;91.00
13954;BME280;7049;49.444;8.522;2023-04-23T19:04:48;76606.75;;;-3.47;92.11
13954;BME280;7049;49.444;8.522;2023-04-23T19:09:49;76621.38;;;-3.47;91.50
13954;BME280;7049;49.444;8.522;2023-04-23T19:14:51;76625.56;;;-3.47;91.57
13954;BME280;7049;49.444;8.522;2023-04-23T19:19:53;76644.41;;;-3.47;90.65
13954;BME280;7049;49.444;8.522;2023-04-23T19:24:55;76654.84;;;-3.47;90.95
13954;BME280;7049;49.444;8.522;2023-04-23T19:29:56;76661.13;;;-3.47;91.10
13954;BME280;7049;49.444;8.522;2023-04-23T19:35:01;76665.31;;;-3.47;91.19
13954;BME280;7049;49.444;8.522;2023-04-23T19:40:05;76671.59;;;-3.47;90.17
13954;BME280;7049;49.444;8.522;2023-04-23T19:45:08;76688.31;;;-3.47;89.80
13954;BME280;7049;49.444;8.522;2023-04-23T19:50:11;76686.22;;;-3.47;90.04
13954;BME280;7049;49.444;8.522;2023-04-23T19:55:12;76682.03;;;-3.47;88.59
13954;BME280;7049;49.444;8.522;2023-04-23T20:00:15;76694.59;;;-3.47;88.37
13954;BME280;7049;49.444;8.522;2023-04-23T20:05:18;76696.69;;;-3.47;88.98
13954;BME280;7049;49.444;8.522;2023-04-23T20:10:21;76700.88;;;-3.47;88.69
13954;BME280;7049;49.444;8.522;2023-04-23T20:15:28;76715.50;;;-3.47;89.65
13954;BME280;7049;49.444;8.522;2023-04-23T20:20:31;76721.78;;;-3.47;89.70
13954;BME280;7049;49.444;8.522;2023-04-23T20:25:33;76717.59;;;-3.47;88.75
13954;BME280;7049;49.444;8.522;2023-04-23T20:30:35;76730.16;;;-3.47;87.97
13954;BME280;7049;49.444;8.522;2023-04-23T20:35:38;76742.72;;;-3.47;85.97
13954;BME280;7049;49.444;8.522;2023-04-23T20:40:41;76757.34;;;-3.47;86.30
13954;BME280;7049;49.444;8.522;2023-04-23T20:45:42;76767.81;;;-3.47;83.91
13954;BME280;7049;49.444;8.522;2023-04-23T20:50:47;76784.53;;;-3.47;83.97
13954;BME280;7049;49.444;8.522;2023-04-23T20:55:48;76780.38;;;-3.47;83.70
13954;BME280;7049;49.444;8.522;2023-04-23T21:00:50;76790.81;;;-3.47;82.85
13954;BME280;7049;49.444;8.522;2023-04-23T21:05:53;76803.38;;;-3.47;83.38
13954;BME280;7049;49.444;8.522;2023-04-23T21:10:55;76813.84;;;-3.47;84.58
13954;BME280;7049;49.444;8.522;2023-04-23T21:15:57;76822.19;;;-3.47;86.22
13954;BME280;7049;49.444;8.522;2023-04-23T21:21:00;76828.47;;;-3.47;87.50
13954;BME280;7049;49.444;8.522;2023-04-23T21:26:01;76838.94;;;-3.47;88.62
13954;BME280;7049;49.444;8.522;2023-04-23T21:31:08;76853.56;;;-3.47;89.53
13954;BME280;7049;49.444;8.522;2023-04-23T21:36:11;76853.56;;;-3.47;90.17
13954;BME280;7049;49.444;8.522;2023-04-23T21:41:12;76861.94;;;-3.47;89.52
13954;BME280;7049;49.444;8.522;2023-04-23T21:46:14;76855.66;;;-3.47;88.65
13954;BME280;7049;49.444;8.522;2023-04-23T21:51:17;76876.59;;;-3.47;88.47
13954;BME280;7049;49.444;8.522;2023-04-23T21:56:20;76889.13;;;-3.47;88.75
13954;BME280;7049;49.444;8.522;2023-04-23T22:01:21;76889.13;;;-3.47;88.21
13954;BME280;7049;49.444;8.522;2023-04-23T22:06:24;76901.69;;;-3.47;88.10
13954;BME280;7049;49.444;8.522;2023-04-23T22:11:26;76889.13;;;-3.47;86.61
13954;BME280;7049;49.444;8.522;2023-04-23T22:16:29;76905.88;;;-3.47;86.25
13954;BME280;7049;49.444;8.522;2023-04-23T22:21:32;76905.88;;;-3.47;85.59
13954;BME280;7049;49.444;8.522;2023-04-23T22:26:33;76914.25;;;-3.47;85.97
13954;BME280;7049;49.444;8.522;2023-04-23T22:31:35;76918.44;;;-3.47;85.64
13954;BME280;7049;49.444;8.522;2023-04-23T22:36:38;76922.63;;;-3.47;85.54
13954;BME280;7049;49.444;8.522;2023-04-23T22:41:42;76935.16;;;-3.47;85.31
13954;BME280;7049;49.444;8.522;2023-04-23T22:46:43;76947.72;;;-3.47;85.55
13954;BME280;7049;49.444;8.522;2023-04-23T22:51:47;76951.91;;;-3.47;85.63
13954;BME280;7049;49.444;8.522;2023-04-23T22:56:49;76956.09;;;-3.47;86.60
13954;BME280;7049;49.444;8.522;2023-04-23T23:01:51;76947.72;;;-3.47;87.81
13954;BME280;7049;49.444;8.522;2023-04-23T23:06:53;76951.91;;;-3.47;88.97
13954;BME280;7049;49.444;8.522;2023-04-23T23:11:55;76956.09;;;-3.47;89.65
13954;BME280;7049;49.444;8.522;2023-04-23T23:16:57;76966.53;;;-3.47;90.23
13954;BME280;7049;49.444;8.522;2023-04-23T23:22:00;76968.63;;;-3.47;90.31
13954;BME280;7049;49.444;8.522;2023-04-23T23:27:02;76956.09;;;-3.47;90.27
13954;BME280;7049;49.444;8.522;2023-04-23T23:32:03;76960.25;;;-3.47;89.95
13954;BME280;7049;49.444;8.522;2023-04-23T23:37:06;76962.34;;;-3.47;90.69
13954;BME280;7049;49.444;8.522;2023-04-23T23:42:07;76960.25;;;-3.47;91.17
13954;BME280;7049;49.444;8.522;2023-04-23T23:47:09;76966.53;;;-3.47;91.45
13954;BME280;7049;49.444;8.522;2023-04-23T23:52:12;76962.34;;;-3.47;91.53
13954;BME280;7049;49.444;8.522;2023-04-23T23:57:13;76954.00;;;-3.47;91.78
